Woodland Park, Colorado
Current Conditions -  °F | °C
As of 8:58 PM on Sunday 19 Oct 2014 (Local Time) from KAFF Reporting Station
Clear Clear  
Wind Chill: 42°   Ceiling: Unl
Heat Index: 47°   Visibility: 10mi
Dew Point: 33°   Wind: 10mph
Humidity: 59%   Direction: 360°N
Pressure: 30.22"   Gusts: NA
Location:  38.99°N, 105.05°W
Report Text: KAFF 200258Z AUTO 36009KT 10SM CLR 08/01 A3022 RMK AO2 SLP189 T00820007
Loading
Personal Weather Stations






























Interactive Weather Map
Tropical Storm Tracking
New forecast layout! Learn more

10-Day Weather Forecast

Advertisements
Track Severe Weather on mobile